sensor_id;sensor_type;location;lat;lon;timestamp;pressure;altitude;pressure_sealevel;temperature;humidity
44140;BME280;29803;51.048;4.686;2023-03-20T00:03:43;102044.97;;;4.53;100.00
44140;BME280;29803;51.048;4.686;2023-03-20T00:09:01;102035.09;;;4.41;100.00
44140;BME280;29803;51.048;4.686;2023-03-20T00:11:34;102024.84;;;4.35;100.00
44140;BME280;29803;51.048;4.686;2023-03-20T00:14:08;102026.22;;;4.28;100.00
44140;BME280;29803;51.048;4.686;2023-03-20T00:16:42;102018.59;;;4.22;100.00
44140;BME280;29803;51.048;4.686;2023-03-20T00:19:16;102025.94;;;4.18;100.00
44140;BME280;29803;51.048;4.686;2023-03-20T00:21:48;102026.31;;;4.12;100.00
44140;BME280;29803;51.048;4.686;2023-03-20T00:24:20;102024.88;;;4.06;100.00
44140;BME280;29803;51.048;4.686;2023-03-20T00:26:51;102012.75;;;4.02;100.00
44140;BME280;29803;51.048;4.686;2023-03-20T00:29:25;102020.22;;;3.96;100.00
44140;BME280;29803;51.048;4.686;2023-03-20T00:31:56;102023.28;;;3.89;100.00
44140;BME280;29803;51.048;4.686;2023-03-20T00:34:27;102023.44;;;3.86;100.00
44140;BME280;29803;51.048;4.686;2023-03-20T00:36:58;102027.16;;;3.84;100.00
44140;BME280;29803;51.048;4.686;2023-03-20T00:39:29;102037.69;;;3.85;100.00
44140;BME280;29803;51.048;4.686;2023-03-20T00:42:01;102037.59;;;3.87;100.00
44140;BME280;29803;51.048;4.686;2023-03-20T00:44:36;102027.06;;;3.85;100.00
44140;BME280;29803;51.048;4.686;2023-03-20T00:47:20;102042.81;;;3.88;100.00
44140;BME280;29803;51.048;4.686;2023-03-20T00:49:52;102048.41;;;3.98;100.00
44140;BME280;29803;51.048;4.686;2023-03-20T00:52:23;102057.06;;;4.02;100.00
44140;BME280;29803;51.048;4.686;2023-03-20T00:54:54;102065.38;;;4.10;100.00
44140;BME280;29803;51.048;4.686;2023-03-20T01:00:36;102049.91;;;4.16;100.00
44140;BME280;29803;51.048;4.686;2023-03-20T01:03:26;102042.03;;;4.15;100.00
44140;BME280;29803;51.048;4.686;2023-03-20T01:05:59;102026.59;;;4.07;100.00
44140;BME280;29803;51.048;4.686;2023-03-20T01:08:29;102036.72;;;4.01;100.00
44140;BME280;29803;51.048;4.686;2023-03-20T01:11:00;102036.53;;;3.89;100.00
44140;BME280;29803;51.048;4.686;2023-03-20T01:13:31;102028.19;;;3.81;100.00
44140;BME280;29803;51.048;4.686;2023-03-20T01:16:02;102024.59;;;3.82;100.00
44140;BME280;29803;51.048;4.686;2023-03-20T01:18:32;102016.44;;;3.85;100.00
44140;BME280;29803;51.048;4.686;2023-03-20T01:21:03;102013.44;;;3.92;100.00
44140;BME280;29803;51.048;4.686;2023-03-20T01:23:34;102013.22;;;3.95;100.00
44140;BME280;29803;51.048;4.686;2023-03-20T01:26:17;102013.03;;;3.98;100.00
44140;BME280;29803;51.048;4.686;2023-03-20T01:28:49;102010.09;;;4.02;100.00
44140;BME280;29803;51.048;4.686;2023-03-20T01:31:20;101997.75;;;4.01;100.00
44140;BME280;29803;51.048;4.686;2023-03-20T01:33:51;102016.28;;;4.03;100.00
44140;BME280;29803;51.048;4.686;2023-03-20T01:36:22;102012.66;;;4.04;100.00
44140;BME280;29803;51.048;4.686;2023-03-20T01:38:56;102005.63;;;4.17;100.00
44140;BME280;29803;51.048;4.686;2023-03-20T01:41:28;102016.44;;;4.28;100.00
44140;BME280;29803;51.048;4.686;2023-03-20T01:44:00;102003.19;;;4.41;100.00
44140;BME280;29803;51.048;4.686;2023-03-20T01:46:36;102006.13;;;4.51;100.00
44140;BME280;29803;51.048;4.686;2023-03-20T01:51:58;102010.16;;;4.71;100.00
44140;BME280;29803;51.048;4.686;2023-03-20T01:54:32;102021.16;;;4.79;100.00
44140;BME280;29803;51.048;4.686;2023-03-20T01:57:10;102030.41;;;4.86;100.00
44140;BME280;29803;51.048;4.686;2023-03-20T01:59:47;102035.34;;;4.92;100.00
44140;BME280;29803;51.048;4.686;2023-03-20T02:02:21;102049.00;;;5.00;100.00
44140;BME280;29803;51.048;4.686;2023-03-20T02:04:56;102045.84;;;5.08;100.00
44140;BME280;29803;51.048;4.686;2023-03-20T02:07:30;102053.41;;;5.14;100.00
44140;BME280;29803;51.048;4.686;2023-03-20T02:10:05;102051.47;;;5.16;100.00
44140;BME280;29803;51.048;4.686;2023-03-20T02:12:37;102055.00;;;5.16;100.00
44140;BME280;29803;51.048;4.686;2023-03-20T02:15:10;102045.97;;;5.19;100.00
44140;BME280;29803;51.048;4.686;2023-03-20T02:17:42;102033.53;;;5.19;100.00
44140;BME280;29803;51.048;4.686;2023-03-20T02:29:31;102029.81;;;5.22;100.00
44140;BME280;29803;51.048;4.686;2023-03-20T02:46:54;102008.25;;;5.00;100.00
44140;BME280;29803;51.048;4.686;2023-03-20T02:50:02;102007.69;;;4.94;100.00
44140;BME280;29803;51.048;4.686;2023-03-20T02:55:55;102007.25;;;4.88;100.00
44140;BME280;29803;51.048;4.686;2023-03-20T02:58:38;101996.81;;;4.85;100.00
44140;BME280;29803;51.048;4.686;2023-03-20T03:01:32;101997.78;;;4.84;100.00
44140;BME280;29803;51.048;4.686;2023-03-20T03:04:10;101975.00;;;4.80;100.00
44140;BME280;29803;51.048;4.686;2023-03-20T03:06:43;101980.59;;;4.75;100.00
44140;BME280;29803;51.048;4.686;2023-03-20T03:09:20;101967.72;;;4.69;100.00
44140;BME280;29803;51.048;4.686;2023-03-20T03:11:55;101970.69;;;4.64;100.00
44140;BME280;29803;51.048;4.686;2023-03-20T03:14:45;101972.69;;;4.61;100.00
44140;BME280;29803;51.048;4.686;2023-03-20T03:17:19;101984.28;;;4.60;100.00
44140;BME280;29803;51.048;4.686;2023-03-20T03:19:54;101984.16;;;4.61;100.00
44140;BME280;29803;51.048;4.686;2023-03-20T03:22:27;101989.28;;;4.64;100.00
44140;BME280;29803;51.048;4.686;2023-03-20T03:24:57;101983.69;;;4.69;100.00
44140;BME280;29803;51.048;4.686;2023-03-20T03:27:33;101998.47;;;4.73;100.00
44140;BME280;29803;51.048;4.686;2023-03-20T03:33:13;101990.09;;;4.79;100.00
44140;BME280;29803;51.048;4.686;2023-03-20T03:35:47;101990.09;;;4.79;100.00
44140;BME280;29803;51.048;4.686;2023-03-20T03:43:59;101996.91;;;4.83;100.00
44140;BME280;29803;51.048;4.686;2023-03-20T03:49:19;101970.97;;;4.87;100.00
44140;BME280;29803;51.048;4.686;2023-03-20T03:51:56;101975.72;;;4.82;100.00
44140;BME280;29803;51.048;4.686;2023-03-20T03:54:35;101992.88;;;4.78;100.00
44140;BME280;29803;51.048;4.686;2023-03-20T03:57:09;101981.47;;;4.76;100.00
44140;BME280;29803;51.048;4.686;2023-03-20T03:59:43;101966.56;;;4.73;100.00
44140;BME280;29803;51.048;4.686;2023-03-20T04:02:16;101985.59;;;4.67;100.00
44140;BME280;29803;51.048;4.686;2023-03-20T04:04:51;101977.06;;;4.62;100.00
44140;BME280;29803;51.048;4.686;2023-03-20T04:07:26;101990.38;;;4.62;100.00
44140;BME280;29803;51.048;4.686;2023-03-20T04:09:57;101983.97;;;4.64;100.00
44140;BME280;29803;51.048;4.686;2023-03-20T04:12:34;101980.06;;;4.70;100.00
44140;BME280;29803;51.048;4.686;2023-03-20T04:15:05;101974.75;;;4.70;100.00
44140;BME280;29803;51.048;4.686;2023-03-20T04:17:36;101970.19;;;4.72;100.00
44140;BME280;29803;51.048;4.686;2023-03-20T04:20:07;101974.56;;;4.73;100.00
44140;BME280;29803;51.048;4.686;2023-03-20T04:22:38;101974.44;;;4.75;100.00
44140;BME280;29803;51.048;4.686;2023-03-20T04:25:16;101973.28;;;4.79;100.00
44140;BME280;29803;51.048;4.686;2023-03-20T04:27:47;101973.19;;;4.80;100.00
44140;BME280;29803;51.048;4.686;2023-03-20T04:30:17;101977.53;;;4.81;100.00
44140;BME280;29803;51.048;4.686;2023-03-20T04:32:48;101974.81;;;4.83;100.00
44140;BME280;29803;51.048;4.686;2023-03-20T04:35:18;101980.00;;;4.84;100.00
44140;BME280;29803;51.048;4.686;2023-03-20T04:37:49;101973.72;;;4.85;100.00
44140;BME280;29803;51.048;4.686;2023-03-20T04:40:20;101974.50;;;4.87;100.00
44140;BME280;29803;51.048;4.686;2023-03-20T04:42:50;101972.56;;;4.89;100.00
44140;BME280;29803;51.048;4.686;2023-03-20T04:45:21;101968.00;;;4.91;100.00
44140;BME280;29803;51.048;4.686;2023-03-20T04:47:51;101961.75;;;4.92;100.00
44140;BME280;29803;51.048;4.686;2023-03-20T04:50:22;101961.75;;;4.92;100.00
44140;BME280;29803;51.048;4.686;2023-03-20T04:52:52;101958.97;;;4.94;100.00
44140;BME280;29803;51.048;4.686;2023-03-20T04:55:23;101958.69;;;4.99;100.00
44140;BME280;29803;51.048;4.686;2023-03-20T04:57:53;101961.03;;;5.03;100.00
44140;BME280;29803;51.048;4.686;2023-03-20T05:00:24;101955.47;;;5.06;100.00
44140;BME280;29803;51.048;4.686;2023-03-20T05:02:55;101955.16;;;5.11;100.00
44140;BME280;29803;51.048;4.686;2023-03-20T05:05:25;101952.44;;;5.12;100.00
44140;BME280;29803;51.048;4.686;2023-03-20T05:07:56;101953.28;;;5.13;100.00
44140;BME280;29803;51.048;4.686;2023-03-20T05:10:26;101946.78;;;5.17;100.00
44140;BME280;29803;51.048;4.686;2023-03-20T05:12:57;101943.91;;;5.20;100.00
44140;BME280;29803;51.048;4.686;2023-03-20T05:15:27;101948.06;;;5.24;100.00
44140;BME280;29803;51.048;4.686;2023-03-20T05:17:58;101947.09;;;5.25;100.00
44140;BME280;29803;51.048;4.686;2023-03-20T05:20:28;101956.78;;;5.26;100.00
44140;BME280;29803;51.048;4.686;2023-03-20T05:22:59;101956.41;;;5.32;100.00
44140;BME280;29803;51.048;4.686;2023-03-20T05:25:30;101959.97;;;5.31;100.00
44140;BME280;29803;51.048;4.686;2023-03-20T05:28:00;101960.63;;;5.35;100.00
44140;BME280;29803;51.048;4.686;2023-03-20T05:30:31;101953.38;;;5.37;100.00
44140;BME280;29803;51.048;4.686;2023-03-20T05:33:01;101949.88;;;5.36;100.00
44140;BME280;29803;51.048;4.686;2023-03-20T05:35:32;101946.16;;;5.39;100.00
44140;BME280;29803;51.048;4.686;2023-03-20T05:38:02;101953.19;;;5.40;100.00
44140;BME280;29803;51.048;4.686;2023-03-20T05:40:33;101955.84;;;5.40;100.00
44140;BME280;29803;51.048;4.686;2023-03-20T05:43:03;101944.25;;;5.41;100.00
44140;BME280;29803;51.048;4.686;2023-03-20T05:45:33;101942.44;;;5.41;100.00
44140;BME280;29803;51.048;4.686;2023-03-20T05:48:04;101944.25;;;5.41;100.00
44140;BME280;29803;51.048;4.686;2023-03-20T05:50:35;101944.16;;;5.42;100.00
44140;BME280;29803;51.048;4.686;2023-03-20T05:53:05;101944.88;;;5.44;100.00
44140;BME280;29803;51.048;4.686;2023-03-20T05:55:36;101951.78;;;5.47;100.00
44140;BME280;29803;51.048;4.686;2023-03-20T05:58:07;101945.75;;;5.45;100.00
44140;BME280;29803;51.048;4.686;2023-03-20T06:00:38;101958.00;;;5.48;100.00
44140;BME280;29803;51.048;4.686;2023-03-20T06:03:09;101954.38;;;5.49;100.00
44140;BME280;29803;51.048;4.686;2023-03-20T06:05:39;101960.44;;;5.51;100.00
44140;BME280;29803;51.048;4.686;2023-03-20T06:08:11;101954.91;;;5.54;100.00
44140;BME280;29803;51.048;4.686;2023-03-20T06:10:41;101949.56;;;5.54;100.00
44140;BME280;29803;51.048;4.686;2023-03-20T06:13:12;101951.06;;;5.58;100.00
44140;BME280;29803;51.048;4.686;2023-03-20T06:15:42;101956.28;;;5.59;100.00
44140;BME280;29803;51.048;4.686;2023-03-20T06:18:13;101960.63;;;5.60;100.00
44140;BME280;29803;51.048;4.686;2023-03-20T06:20:43;101957.88;;;5.62;100.00
44140;BME280;29803;51.048;4.686;2023-03-20T06:23:14;101969.03;;;5.67;100.00
44140;BME280;29803;51.048;4.686;2023-03-20T06:25:44;101969.38;;;5.75;100.00
44140;BME280;29803;51.048;4.686;2023-03-20T06:28:15;101970.97;;;5.78;100.00
44140;BME280;29803;51.048;4.686;2023-03-20T06:30:46;101981.50;;;5.79;100.00
44140;BME280;29803;51.048;4.686;2023-03-20T06:33:16;101976.84;;;5.83;100.00
44140;BME280;29803;51.048;4.686;2023-03-20T06:35:47;101974.91;;;5.85;100.00
44140;BME280;29803;51.048;4.686;2023-03-20T06:38:18;101975.44;;;5.90;100.00
44140;BME280;29803;51.048;4.686;2023-03-20T06:40:48;101977.06;;;5.92;100.00
44140;BME280;29803;51.048;4.686;2023-03-20T06:43:19;101970.78;;;5.93;100.00
44140;BME280;29803;51.048;4.686;2023-03-20T06:45:50;101964.69;;;6.04;100.00
44140;BME280;29803;51.048;4.686;2023-03-20T06:48:21;101972.44;;;6.07;100.00
44140;BME280;29803;51.048;4.686;2023-03-20T06:50:51;101971.19;;;6.13;100.00
44140;BME280;29803;51.048;4.686;2023-03-20T06:53:22;101988.53;;;6.18;100.00
44140;BME280;29803;51.048;4.686;2023-03-20T06:55:53;101988.19;;;6.23;100.00
44140;BME280;29803;51.048;4.686;2023-03-20T06:58:24;101997.13;;;6.22;100.00
44140;BME280;29803;51.048;4.686;2023-03-20T07:00:54;101985.09;;;6.29;100.00
44140;BME280;29803;51.048;4.686;2023-03-20T07:03:25;101992.56;;;6.24;100.00
44140;BME280;29803;51.048;4.686;2023-03-20T07:05:55;101989.31;;;6.32;100.00
44140;BME280;29803;51.048;4.686;2023-03-20T07:08:26;101992.75;;;6.34;100.00
44140;BME280;29803;51.048;4.686;2023-03-20T07:10:56;101997.25;;;6.33;100.00
44140;BME280;29803;51.048;4.686;2023-03-20T07:13:27;102001.72;;;6.33;100.00
44140;BME280;29803;51.048;4.686;2023-03-20T07:16:00;101999.34;;;6.41;100.00
44140;BME280;29803;51.048;4.686;2023-03-20T07:18:31;101999.63;;;6.49;100.00
44140;BME280;29803;51.048;4.686;2023-03-20T07:21:03;102001.13;;;6.53;100.00
44140;BME280;29803;51.048;4.686;2023-03-20T07:23:35;102008.16;;;6.54;100.00
44140;BME280;29803;51.048;4.686;2023-03-20T07:26:06;102007.91;;;6.57;100.00
44140;BME280;29803;51.048;4.686;2023-03-20T07:28:36;102003.53;;;6.56;100.00
44140;BME280;29803;51.048;4.686;2023-03-20T07:31:12;102002.88;;;6.65;100.00
44140;BME280;29803;51.048;4.686;2023-03-20T07:33:47;102008.84;;;6.69;100.00
44140;BME280;29803;51.048;4.686;2023-03-20T07:36:18;102001.91;;;6.66;100.00
44140;BME280;29803;51.048;4.686;2023-03-20T07:38:48;102006.91;;;6.71;100.00
44140;BME280;29803;51.048;4.686;2023-03-20T07:41:19;102001.97;;;6.78;100.00
44140;BME280;29803;51.048;4.686;2023-03-20T07:43:49;102006.63;;;6.87;100.00
44140;BME280;29803;51.048;4.686;2023-03-20T07:46:20;102006.88;;;6.84;100.00
44140;BME280;29803;51.048;4.686;2023-03-20T07:48:50;102004.75;;;6.76;100.00
44140;BME280;29803;51.048;4.686;2023-03-20T07:51:21;101998.75;;;6.85;100.00
44140;BME280;29803;51.048;4.686;2023-03-20T07:53:51;101999.53;;;6.98;100.00
44140;BME280;29803;51.048;4.686;2023-03-20T07:56:22;101999.28;;;7.01;100.00
44140;BME280;29803;51.048;4.686;2023-03-20T07:58:52;102001.44;;;7.20;100.00
44140;BME280;29803;51.048;4.686;2023-03-20T08:01:23;101993.84;;;7.38;100.00
44140;BME280;29803;51.048;4.686;2023-03-20T08:03:53;102000.75;;;7.41;100.00
44140;BME280;29803;51.048;4.686;2023-03-20T08:06:24;102000.75;;;7.41;100.00
44140;BME280;29803;51.048;4.686;2023-03-20T08:08:54;102004.56;;;7.49;100.00
44140;BME280;29803;51.048;4.686;2023-03-20T08:11:25;102008.84;;;7.63;100.00
44140;BME280;29803;51.048;4.686;2023-03-20T08:13:55;102002.84;;;7.48;100.00
44140;BME280;29803;51.048;4.686;2023-03-20T08:16:26;102007.41;;;7.35;100.00
44140;BME280;29803;51.048;4.686;2023-03-20T08:18:56;102005.47;;;7.37;100.00
44140;BME280;29803;51.048;4.686;2023-03-20T08:21:31;102016.41;;;7.34;100.00
44140;BME280;29803;51.048;4.686;2023-03-20T08:24:01;102005.72;;;7.34;100.00
44140;BME280;29803;51.048;4.686;2023-03-20T08:26:32;102015.06;;;7.29;100.00
44140;BME280;29803;51.048;4.686;2023-03-20T08:29:03;102018.47;;;7.42;100.00
44140;BME280;29803;51.048;4.686;2023-03-20T08:31:33;102014.72;;;7.33;100.00
44140;BME280;29803;51.048;4.686;2023-03-20T08:34:04;102015.13;;;7.16;100.00
44140;BME280;29803;51.048;4.686;2023-03-20T08:36:34;102015.50;;;7.22;100.00
44140;BME280;29803;51.048;4.686;2023-03-20T08:39:06;102024.44;;;7.10;100.00
44140;BME280;29803;51.048;4.686;2023-03-20T08:41:37;102021.66;;;7.12;100.00
44140;BME280;29803;51.048;4.686;2023-03-20T08:44:11;102025.28;;;7.11;100.00
44140;BME280;29803;51.048;4.686;2023-03-20T08:46:42;102031.47;;;7.11;100.00
44140;BME280;29803;51.048;4.686;2023-03-20T08:49:14;102036.47;;;7.16;100.00
44140;BME280;29803;51.048;4.686;2023-03-20T08:51:44;102040.31;;;7.12;100.00
44140;BME280;29803;51.048;4.686;2023-03-20T08:54:15;102037.78;;;7.10;100.00
44140;BME280;29803;51.048;4.686;2023-03-20T08:56:47;102039.94;;;7.05;100.00
44140;BME280;29803;51.048;4.686;2023-03-20T08:59:18;102040.66;;;7.07;100.00
44140;BME280;29803;51.048;4.686;2023-03-20T09:01:48;102042.41;;;7.08;100.00
44140;BME280;29803;51.048;4.686;2023-03-20T09:04:19;102047.38;;;7.13;100.00
44140;BME280;29803;51.048;4.686;2023-03-20T09:06:50;102050.28;;;7.10;100.00
44140;BME280;29803;51.048;4.686;2023-03-20T09:09:20;102040.13;;;7.15;100.00
44140;BME280;29803;51.048;4.686;2023-03-20T09:11:57;102040.75;;;7.18;100.00
44140;BME280;29803;51.048;4.686;2023-03-20T09:14:29;102040.91;;;7.28;100.00
44140;BME280;29803;51.048;4.686;2023-03-20T09:16:59;102043.31;;;7.31;100.00
44140;BME280;29803;51.048;4.686;2023-03-20T09:19:30;102040.66;;;7.31;100.00
44140;BME280;29803;51.048;4.686;2023-03-20T09:22:00;102044.47;;;7.51;100.00
44140;BME280;29803;51.048;4.686;2023-03-20T09:24:31;102039.00;;;7.52;100.00
44140;BME280;29803;51.048;4.686;2023-03-20T09:27:02;102033.94;;;7.49;100.00
44140;BME280;29803;51.048;4.686;2023-03-20T09:29:33;102039.91;;;7.64;100.00
44140;BME280;29803;51.048;4.686;2023-03-20T09:32:03;102041.13;;;7.71;100.00
44140;BME280;29803;51.048;4.686;2023-03-20T09:34:34;102047.59;;;7.80;100.00
44140;BME280;29803;51.048;4.686;2023-03-20T09:37:05;102045.19;;;7.99;100.00
44140;BME280;29803;51.048;4.686;2023-03-20T09:39:35;102040.09;;;8.19;100.00
44140;BME280;29803;51.048;4.686;2023-03-20T09:48:13;102030.53;;;8.39;100.00
44140;BME280;29803;51.048;4.686;2023-03-20T09:51:06;102033.78;;;8.53;100.00
44140;BME280;29803;51.048;4.686;2023-03-20T09:53:46;102029.88;;;8.46;100.00
44140;BME280;29803;51.048;4.686;2023-03-20T09:56:24;102040.56;;;8.57;100.00
44140;BME280;29803;51.048;4.686;2023-03-20T09:58:58;102026.47;;;8.55;100.00
44140;BME280;29803;51.048;4.686;2023-03-20T10:01:44;102036.47;;;8.53;100.00
44140;BME280;29803;51.048;4.686;2023-03-20T10:04:16;102026.06;;;8.71;100.00
44140;BME280;29803;51.048;4.686;2023-03-20T10:06:47;102030.81;;;8.79;100.00
44140;BME280;29803;51.048;4.686;2023-03-20T10:09:36;102015.75;;;8.67;100.00
44140;BME280;29803;51.048;4.686;2023-03-20T10:12:15;102019.34;;;8.77;100.00
44140;BME280;29803;51.048;4.686;2023-03-20T10:15:03;102017.25;;;8.92;100.00
44140;BME280;29803;51.048;4.686;2023-03-20T10:20:32;102012.22;;;9.30;100.00
44140;BME280;29803;51.048;4.686;2023-03-20T10:23:05;102009.47;;;9.21;100.00
44140;BME280;29803;51.048;4.686;2023-03-20T10:25:42;102002.88;;;9.04;100.00
44140;BME280;29803;51.048;4.686;2023-03-20T10:28:19;102008.81;;;9.28;100.00
44140;BME280;29803;51.048;4.686;2023-03-20T10:34:32;101999.22;;;9.47;100.00
44140;BME280;29803;51.048;4.686;2023-03-20T10:37:27;102009.00;;;9.57;100.00
44140;BME280;29803;51.048;4.686;2023-03-20T10:43:08;101998.06;;;9.40;100.00
44140;BME280;29803;51.048;4.686;2023-03-20T10:51:21;101986.56;;;9.49;100.00
44140;BME280;29803;51.048;4.686;2023-03-20T10:53:58;101982.97;;;9.59;100.00
44140;BME280;29803;51.048;4.686;2023-03-20T10:56:35;101975.44;;;9.32;100.00
44140;BME280;29803;51.048;4.686;2023-03-20T11:01:45;101959.84;;;9.68;100.00
44140;BME280;29803;51.048;4.686;2023-03-20T11:04:15;101961.75;;;9.77;100.00
44140;BME280;29803;51.048;4.686;2023-03-20T11:07:08;101964.09;;;10.01;100.00
44140;BME280;29803;51.048;4.686;2023-03-20T11:09:42;101956.84;;;10.23;100.00
44140;BME280;29803;51.048;4.686;2023-03-20T11:12:15;101961.56;;;10.00;100.00
44140;BME280;29803;51.048;4.686;2023-03-20T11:14:47;101965.78;;;10.02;100.00
44140;BME280;29803;51.048;4.686;2023-03-20T11:17:17;101959.56;;;9.92;100.00
44140;BME280;29803;51.048;4.686;2023-03-20T11:19:50;101958.66;;;9.82;100.00
44140;BME280;29803;51.048;4.686;2023-03-20T11:24:53;101958.84;;;9.90;100.00
44140;BME280;29803;51.048;4.686;2023-03-20T11:27:27;101953.97;;;10.45;100.00
44140;BME280;29803;51.048;4.686;2023-03-20T11:30:02;101955.53;;;10.77;100.00
44140;BME280;29803;51.048;4.686;2023-03-20T11:32:39;101950.59;;;10.82;100.00
44140;BME280;29803;51.048;4.686;2023-03-20T11:35:29;101950.75;;;10.90;100.00
44140;BME280;29803;51.048;4.686;2023-03-20T11:38:14;101945.38;;;10.90;100.00
44140;BME280;29803;51.048;4.686;2023-03-20T11:40:46;101943.97;;;10.86;100.00
44140;BME280;29803;51.048;4.686;2023-03-20T11:43:21;101948.19;;;11.08;100.00
44140;BME280;29803;51.048;4.686;2023-03-20T11:46:07;101945.38;;;11.09;100.00
44140;BME280;29803;51.048;4.686;2023-03-20T11:48:42;101942.22;;;11.24;100.00
44140;BME280;29803;51.048;4.686;2023-03-20T11:51:18;101929.13;;;11.58;100.00
44140;BME280;29803;51.048;4.686;2023-03-20T11:53:57;101934.75;;;11.64;100.00
44140;BME280;29803;51.048;4.686;2023-03-20T11:56:31;101924.84;;;11.75;100.00
44140;BME280;29803;51.048;4.686;2023-03-20T11:59:14;101936.72;;;11.25;100.00
44140;BME280;29803;51.048;4.686;2023-03-20T12:01:50;101930.06;;;11.29;100.00
44140;BME280;29803;51.048;4.686;2023-03-20T12:04:36;101924.25;;;11.24;100.00
44140;BME280;29803;51.048;4.686;2023-03-20T12:09:52;101930.88;;;11.39;100.00
44140;BME280;29803;51.048;4.686;2023-03-20T12:15:35;101926.84;;;11.26;100.00
44140;BME280;29803;51.048;4.686;2023-03-20T12:24:03;101915.31;;;11.43;100.00
44140;BME280;29803;51.048;4.686;2023-03-20T12:26:54;101907.00;;;11.36;100.00
44140;BME280;29803;51.048;4.686;2023-03-20T12:29:33;101899.59;;;11.48;100.00
44140;BME280;29803;51.048;4.686;2023-03-20T12:35:16;101895.13;;;11.86;100.00
44140;BME280;29803;51.048;4.686;2023-03-20T12:37:48;101886.69;;;11.99;100.00
44140;BME280;29803;51.048;4.686;2023-03-20T12:40:36;101893.91;;;12.26;100.00
44140;BME280;29803;51.048;4.686;2023-03-20T12:43:29;101883.69;;;12.47;100.00
44140;BME280;29803;51.048;4.686;2023-03-20T12:46:06;101872.22;;;12.45;100.00
44140;BME280;29803;51.048;4.686;2023-03-20T12:52:05;101881.47;;;12.60;100.00
44140;BME280;29803;51.048;4.686;2023-03-20T13:05:57;101878.44;;;11.82;100.00
44140;BME280;29803;51.048;4.686;2023-03-20T13:15:18;101863.31;;;11.72;100.00
44140;BME280;29803;51.048;4.686;2023-03-20T13:20:32;101872.59;;;11.50;100.00
44140;BME280;29803;51.048;4.686;2023-03-20T13:29:03;101865.88;;;11.36;100.00
44140;BME280;29803;51.048;4.686;2023-03-20T13:45:40;101855.97;;;11.36;100.00
44140;BME280;29803;51.048;4.686;2023-03-20T13:48:23;101855.00;;;11.28;100.00
44140;BME280;29803;51.048;4.686;2023-03-20T13:51:10;101850.00;;;11.43;100.00
44140;BME280;29803;51.048;4.686;2023-03-20T14:05:23;101852.31;;;11.28;100.00
44140;BME280;29803;51.048;4.686;2023-03-20T14:07:56;101844.69;;;11.23;100.00
44140;BME280;29803;51.048;4.686;2023-03-20T14:13:03;101849.13;;;11.14;100.00
44140;BME280;29803;51.048;4.686;2023-03-20T14:15:37;101841.34;;;11.11;100.00
44140;BME280;29803;51.048;4.686;2023-03-20T14:18:15;101841.34;;;11.02;100.00
44140;BME280;29803;51.048;4.686;2023-03-20T14:20:54;101841.06;;;11.05;100.00
44140;BME280;29803;51.048;4.686;2023-03-20T14:23:46;101843.03;;;11.03;100.00
44140;BME280;29803;51.048;4.686;2023-03-20T14:26:37;101832.16;;;11.04;100.00
44140;BME280;29803;51.048;4.686;2023-03-20T14:31:41;101833.59;;;10.99;100.00
44140;BME280;29803;51.048;4.686;2023-03-20T14:37:04;101821.47;;;10.85;100.00
44140;BME280;29803;51.048;4.686;2023-03-20T14:42:23;101822.84;;;10.99;100.00
44140;BME280;29803;51.048;4.686;2023-03-20T14:45:27;101817.56;;;11.17;100.00
44140;BME280;29803;51.048;4.686;2023-03-20T14:48:05;101818.16;;;11.10;100.00
44140;BME280;29803;51.048;4.686;2023-03-20T14:56:55;101815.69;;;11.27;100.00
44140;BME280;29803;51.048;4.686;2023-03-20T14:59:31;101811.72;;;11.31;100.00
44140;BME280;29803;51.048;4.686;2023-03-20T15:02:02;101813.25;;;11.33;100.00
44140;BME280;29803;51.048;4.686;2023-03-20T15:04:43;101815.81;;;11.35;100.00
44140;BME280;29803;51.048;4.686;2023-03-20T15:07:35;101807.16;;;11.41;100.00
44140;BME280;29803;51.048;4.686;2023-03-20T15:10:08;101807.78;;;11.25;100.00
44140;BME280;29803;51.048;4.686;2023-03-20T15:12:43;101799.38;;;11.38;100.00
44140;BME280;29803;51.048;4.686;2023-03-20T15:15:28;101805.94;;;11.26;100.00
44140;BME280;29803;51.048;4.686;2023-03-20T15:18:05;101799.78;;;11.15;100.00
44140;BME280;29803;51.048;4.686;2023-03-20T15:20:36;101801.78;;;11.04;100.00
44140;BME280;29803;51.048;4.686;2023-03-20T15:23:07;101809.72;;;10.96;100.00
44140;BME280;29803;51.048;4.686;2023-03-20T15:25:40;101803.63;;;10.94;100.00
44140;BME280;29803;51.048;4.686;2023-03-20T15:28:14;101803.63;;;10.94;100.00
44140;BME280;29803;51.048;4.686;2023-03-20T15:30:47;101799.28;;;10.83;100.00
44140;BME280;29803;51.048;4.686;2023-03-20T15:33:38;101797.44;;;10.83;100.00
44140;BME280;29803;51.048;4.686;2023-03-20T15:36:16;101800.97;;;10.84;100.00
44140;BME280;29803;51.048;4.686;2023-03-20T15:38:47;101794.50;;;10.77;100.00
44140;BME280;29803;51.048;4.686;2023-03-20T15:41:37;101800.28;;;10.82;100.00
44140;BME280;29803;51.048;4.686;2023-03-20T15:46:48;101781.47;;;10.92;100.00
44140;BME280;29803;51.048;4.686;2023-03-20T15:49:20;101783.06;;;10.84;100.00
44140;BME280;29803;51.048;4.686;2023-03-20T15:51:52;101774.72;;;10.78;100.00
44140;BME280;29803;51.048;4.686;2023-03-20T15:54:23;101784.47;;;10.69;100.00
44140;BME280;29803;51.048;4.686;2023-03-20T15:56:56;101780.41;;;10.75;100.00
44140;BME280;29803;51.048;4.686;2023-03-20T15:59:29;101781.22;;;10.75;100.00
44140;BME280;29803;51.048;4.686;2023-03-20T16:02:02;101787.56;;;10.84;100.00
44140;BME280;29803;51.048;4.686;2023-03-20T16:04:34;101785.16;;;10.91;100.00
44140;BME280;29803;51.048;4.686;2023-03-20T16:07:17;101768.72;;;10.94;100.00
44140;BME280;29803;51.048;4.686;2023-03-20T16:09:49;101772.63;;;11.09;100.00